Time;durP1;ratioP1;P1;durP2;ratioP2;P2;SDS_P1;SDS_P2;PMS_P1;PMS_P2;Temp;Humidity;BMP_temperature;BMP_pressure;BME280_temperature;BME280_humidity;BME280_pressure;Samples;Min_cycle;Max_cycle;Signal;HPM_P1;HPM_P2
2021/09/21 00:02:25;;;;;;;0.50;0.40;;;13.00;99.90;;;;;;5036247;28;20474;-79
2021/09/21 00:04:54;;;;;;;0.50;0.40;;;13.00;99.90;;;;;;5035856;28;20465;-79
2021/09/21 00:07:22;;;;;;;0.50;0.40;;;13.00;99.90;;;;;;5036385;28;20203;-79
2021/09/21 00:09:49;;;;;;;0.50;0.40;;;13.00;99.90;;;;;;5047137;28;20223;-79
2021/09/21 00:12:15;;;;;;;0.50;0.40;;;13.00;99.90;;;;;;5056196;28;20557;-79
2021/09/21 00:14:42;;;;;;;0.50;0.40;;;13.00;99.90;;;;;;5056272;28;20550;-79
2021/09/21 00:17:09;;;;;;;0.50;0.40;;;13.00;99.90;;;;;;5055768;28;20198;-79
2021/09/21 00:19:36;;;;;;;0.53;0.50;;;13.00;99.90;;;;;;5056081;28;20202;-79
2021/09/21 00:22:04;;;;;;;0.50;0.40;;;13.00;99.90;;;;;;5055324;28;20481;-79
2021/09/21 00:24:32;;;;;;;0.50;0.40;;;13.00;99.90;;;;;;5037880;28;20195;-79
2021/09/21 00:26:59;;;;;;;0.50;0.40;;;13.00;99.90;;;;;;5036083;28;20785;-79
2021/09/21 00:29:26;;;;;;;0.50;0.40;;;12.90;99.90;;;;;;5035698;28;20196;-79
2021/09/21 00:31:59;;;;;;;0.50;0.40;;;12.80;99.90;;;;;;5038443;28;20430;-79
2021/09/21 00:34:28;;;;;;;0.50;0.40;;;12.80;99.90;;;;;;5038941;28;20440;-76
2021/09/21 00:36:55;;;;;;;0.50;0.40;;;12.90;99.90;;;;;;5038888;28;20497;-79
2021/09/21 00:39:22;;;;;;;0.50;0.40;;;12.90;99.90;;;;;;5038051;28;20200;-80
2021/09/21 00:41:50;;;;;;;0.50;0.40;;;12.80;99.90;;;;;;5038523;28;20226;-80
2021/09/21 00:44:20;;;;;;;0.50;0.40;;;12.80;99.90;;;;;;5037846;28;20201;-79
2021/09/21 00:46:47;;;;;;;0.50;0.40;;;12.80;99.90;;;;;;5038729;28;20231;-79
2021/09/21 00:49:14;;;;;;;0.50;0.40;;;12.80;99.90;;;;;;5039500;28;20439;-80
2021/09/21 00:51:41;;;;;;;0.50;0.40;;;12.80;99.90;;;;;;5038165;28;20251;-80
2021/09/21 00:54:08;;;;;;;0.50;0.40;;;12.80;99.90;;;;;;5039161;28;20196;-80
2021/09/21 00:56:35;;;;;;;0.50;0.40;;;12.80;99.90;;;;;;5039130;28;20199;-80
2021/09/21 00:59:03;;;;;;;0.50;0.40;;;12.70;99.90;;;;;;5038754;28;20198;-79
2021/09/21 01:01:30;;;;;;;0.50;0.40;;;12.70;99.90;;;;;;5042648;28;20226;-78
2021/09/21 01:03:56;;;;;;;0.50;0.40;;;12.60;99.90;;;;;;5057876;28;21288;-80
2021/09/21 01:06:23;;;;;;;0.50;0.40;;;12.60;99.90;;;;;;5058337;28;20194;-80
2021/09/21 01:08:50;;;;;;;0.50;0.40;;;12.60;99.90;;;;;;5058520;28;20202;-78
2021/09/21 01:11:16;;;;;;;0.50;0.40;;;12.50;99.90;;;;;;5056531;28;20602;-79
2021/09/21 01:13:43;;;;;;;0.50;0.40;;;12.50;99.90;;;;;;5058237;28;20441;-79
2021/09/21 01:16:11;;;;;;;3.00;1.77;;;12.50;99.90;;;;;;5057284;28;20468;-79
2021/09/21 01:18:38;;;;;;;0.50;0.40;;;12.40;99.90;;;;;;5057897;28;20729;-79
2021/09/21 01:21:06;;;;;;;0.50;0.40;;;12.40;99.90;;;;;;5057825;28;20222;-80
2021/09/21 01:23:46;;;;;;;0.50;0.40;;;12.40;99.90;;;;;;5047565;28;20212;-80
2021/09/21 01:26:12;;;;;;;0.50;0.40;;;12.40;99.90;;;;;;5039162;28;20180;-79
2021/09/21 01:28:39;;;;;;;0.50;0.40;;;12.40;99.90;;;;;;5037952;28;20546;-80
2021/09/21 01:31:07;;;;;;;0.50;0.40;;;12.30;99.90;;;;;;5037747;28;20226;-80
2021/09/21 01:33:34;;;;;;;0.50;0.40;;;12.30;99.90;;;;;;5037786;28;20643;-80
2021/09/21 01:36:01;;;;;;;0.50;0.40;;;12.30;99.90;;;;;;5037730;28;20568;-79
2021/09/21 01:38:28;;;;;;;0.50;0.40;;;12.20;99.90;;;;;;5037890;28;20210;-79
2021/09/21 01:40:56;;;;;;;0.50;0.40;;;12.20;99.90;;;;;;5037237;28;20461;-80
2021/09/21 01:43:23;;;;;;;0.50;0.40;;;12.20;99.90;;;;;;5037749;28;20481;-79
2021/09/21 01:45:50;;;;;;;0.50;0.40;;;12.10;99.90;;;;;;5042821;28;20199;-80
2021/09/21 01:48:16;;;;;;;0.50;0.40;;;12.10;99.90;;;;;;5045526;28;20191;-80
2021/09/21 01:50:48;;;;;;;0.50;0.40;;;12.00;99.90;;;;;;5050414;28;20230;-79
2021/09/21 01:53:20;;;;;;;0.50;0.40;;;11.90;99.90;;;;;;5037232;28;20222;-79
2021/09/21 01:58:47;;;;;;;0.50;0.40;;;11.90;99.90;;;;;;5037682;28;20286;-80
2021/09/21 02:01:15;;;;;;;0.50;0.40;;;11.90;99.90;;;;;;5037307;28;20482;-79
2021/09/21 02:03:42;;;;;;;0.50;0.40;;;11.90;99.90;;;;;;5037254;28;20229;-79
2021/09/21 02:06:09;;;;;;;0.50;0.40;;;11.90;99.90;;;;;;5037382;28;20671;-79
2021/09/21 02:08:36;;;;;;;0.50;0.40;;;11.90;99.90;;;;;;5037695;28;20668;-79
2021/09/21 02:11:03;;;;;;;0.50;0.40;;;11.90;99.90;;;;;;5036898;28;20281;-80
2021/09/21 02:13:30;;;;;;;0.50;0.40;;;11.80;99.90;;;;;;5036998;28;20249;-79
2021/09/21 02:15:59;;;;;;;0.50;0.40;;;11.80;99.90;;;;;;5037874;28;20600;-80
2021/09/21 02:18:26;;;;;;;0.50;0.40;;;11.80;99.90;;;;;;5038638;28;20206;-80
2021/09/21 02:20:53;;;;;;;0.50;0.40;;;11.80;99.90;;;;;;5037320;28;20620;-78
2021/09/21 02:23:20;;;;;;;0.50;0.40;;;11.80;99.90;;;;;;5052413;28;20208;-80
2021/09/21 02:25:47;;;;;;;0.50;0.40;;;11.80;99.90;;;;;;5045456;28;20230;-79
2021/09/21 02:28:14;;;;;;;0.50;0.40;;;11.80;99.90;;;;;;5038769;28;20202;-80
2021/09/21 02:30:41;;;;;;;0.50;0.40;;;11.80;99.90;;;;;;5040818;28;20229;-78
2021/09/21 02:33:09;;;;;;;0.50;0.40;;;11.70;99.90;;;;;;5041222;28;20187;-79
2021/09/21 02:35:36;;;;;;;0.50;0.40;;;11.70;99.90;;;;;;5041536;28;20196;-77
2021/09/21 02:38:03;;;;;;;0.50;0.40;;;11.70;99.90;;;;;;5041074;28;20211;-80
2021/09/21 02:40:30;;;;;;;0.50;0.40;;;11.70;99.90;;;;;;5040211;28;20219;-80
2021/09/21 02:42:57;;;;;;;0.50;0.40;;;11.60;99.90;;;;;;5040798;28;20234;-79
2021/09/21 02:45:24;;;;;;;0.50;0.40;;;11.60;99.90;;;;;;5040318;28;20212;-80
2021/09/21 02:47:51;;;;;;;0.50;0.40;;;11.60;99.90;;;;;;5040450;28;20238;-79
2021/09/21 02:50:19;;;;;;;0.50;0.40;;;11.60;99.90;;;;;;5040332;28;20216;-79
2021/09/21 02:52:46;;;;;;;0.50;0.40;;;11.60;99.90;;;;;;5055511;28;20202;-79
2021/09/21 02:55:12;;;;;;;0.50;0.40;;;11.70;99.90;;;;;;5060844;28;20205;-78
2021/09/21 02:57:39;;;;;;;0.50;0.40;;;11.60;99.90;;;;;;5060417;28;20198;-79
2021/09/21 03:00:08;;;;;;;0.50;0.40;;;11.60;99.90;;;;;;5059314;28;20231;-77
2021/09/21 03:02:35;;;;;;;0.50;0.40;;;11.50;99.90;;;;;;5060013;28;20570;-80
2021/09/21 03:05:05;;;;;;;0.50;0.40;;;11.40;99.90;;;;;;5060271;28;20571;-79
2021/09/21 03:07:37;;;;;;;0.50;0.40;;;11.30;99.90;;;;;;5060582;28;20200;-77
2021/09/21 03:10:14;;;;;;;0.50;0.40;;;11.20;99.90;;;;;;5059611;28;20235;-77
2021/09/21 03:18:12;;;;;;;0.50;0.40;;;10.70;99.90;;;;;;5054627;28;20668;-78
2021/09/21 03:20:39;;;;;;;0.50;0.40;;;10.60;99.90;;;;;;5051055;28;20208;-78
2021/09/21 03:23:07;;;;;;;0.50;0.40;;;10.50;99.90;;;;;;5059884;28;20289;-77
2021/09/21 03:25:34;;;;;;;0.50;0.40;;;10.30;99.90;;;;;;5051037;28;20193;-80
2021/09/21 03:28:00;;;;;;;0.50;0.40;;;10.20;99.90;;;;;;5059593;28;20198;-78
2021/09/21 03:30:27;;;;;;;0.50;0.40;;;10.20;99.90;;;;;;5056688;28;20220;-77
2021/09/21 03:32:53;;;;;;;0.50;0.40;;;10.10;99.90;;;;;;5055786;28;20200;-78
2021/09/21 03:35:20;;;;;;;0.50;0.40;;;10.00;99.90;;;;;;5056385;28;20674;-79
2021/09/21 03:37:47;;;;;;;0.50;0.40;;;10.00;99.90;;;;;;5056958;28;20570;-78
2021/09/21 03:40:15;;;;;;;0.50;0.40;;;9.90;99.90;;;;;;5056208;28;20216;-78
2021/09/21 03:42:42;;;;;;;0.50;0.40;;;9.80;99.90;;;;;;5056356;28;20206;-78
2021/09/21 03:45:10;;;;;;;0.50;0.40;;;9.80;99.90;;;;;;5055677;28;20196;-78
2021/09/21 03:47:37;;;;;;;0.50;0.40;;;9.80;99.90;;;;;;5056118;28;20196;-77
2021/09/21 03:50:05;;;;;;;0.50;0.40;;;9.70;99.90;;;;;;5055513;28;20700;-78
2021/09/21 03:52:32;;;;;;;0.50;0.40;;;9.70;99.90;;;;;;5055710;28;20735;-78
2021/09/21 03:54:58;;;;;;;0.50;0.40;;;9.70;99.90;;;;;;5053390;28;20199;-77
2021/09/21 03:57:26;;;;;;;0.50;0.40;;;9.70;99.90;;;;;;5036246;28;20201;-78
2021/09/21 03:59:53;;;;;;;0.50;0.40;;;9.60;99.90;;;;;;5036427;28;20242;-78
2021/09/21 04:02:20;;;;;;;0.50;0.40;;;9.60;99.90;;;;;;5035934;28;20670;-79
2021/09/21 04:04:47;;;;;;;0.50;0.40;;;9.60;99.90;;;;;;5035574;28;20222;-77
2021/09/21 04:07:13;;;;;;;0.50;0.40;;;9.50;99.90;;;;;;5036053;28;20192;-78
2021/09/21 04:09:40;;;;;;;0.50;0.40;;;9.50;99.90;;;;;;5035581;28;20270;-78
2021/09/21 04:12:07;;;;;;;0.50;0.40;;;9.40;99.90;;;;;;5035059;28;20586;-78
2021/09/21 04:14:35;;;;;;;0.50;0.40;;;9.40;99.90;;;;;;5035957;28;20212;-78
2021/09/21 04:17:02;;;;;;;0.50;0.40;;;9.40;99.90;;;;;;5035823;28;20200;-78
2021/09/21 04:19:29;;;;;;;0.50;0.40;;;9.30;99.90;;;;;;5035797;28;20204;-78
2021/09/21 04:21:56;;;;;;;0.50;0.40;;;9.30;99.90;;;;;;5035740;28;20204;-78
2021/09/21 04:24:22;;;;;;;0.50;0.40;;;9.20;99.90;;;;;;5035415;28;20578;-78
2021/09/21 04:26:49;;;;;;;0.50;0.40;;;9.20;99.90;;;;;;5035649;28;20207;-78
2021/09/21 04:29:16;;;;;;;0.50;0.40;;;9.20;99.90;;;;;;5035086;28;20196;-77
2021/09/21 04:31:45;;;;;;;0.50;0.40;;;9.20;99.90;;;;;;5035636;28;20224;-78
2021/09/21 04:34:14;;;;;;;0.50;0.40;;;9.10;99.90;;;;;;5035296;28;20673;-79
2021/09/21 04:36:41;;;;;;;0.50;0.40;;;9.10;99.90;;;;;;5035477;28;20204;-79
2021/09/21 04:39:07;;;;;;;0.50;0.40;;;9.10;99.90;;;;;;5035999;28;20200;-77
2021/09/21 04:41:34;;;;;;;0.50;0.40;;;9.00;99.90;;;;;;5034428;28;20219;-78
2021/09/21 04:44:01;;;;;;;0.50;0.40;;;9.00;99.90;;;;;;5035339;28;20217;-78
2021/09/21 04:46:28;;;;;;;0.50;0.40;;;8.90;99.90;;;;;;5033364;28;20586;-77
2021/09/21 04:48:56;;;;;;;0.50;0.40;;;9.00;99.90;;;;;;5033459;28;20207;-77
2021/09/21 04:51:23;;;;;;;0.50;0.40;;;8.90;99.90;;;;;;5032446;28;20225;-78
2021/09/21 04:53:50;;;;;;;0.50;0.40;;;8.90;99.90;;;;;;5032652;28;20219;-77
2021/09/21 04:56:16;;;;;;;0.50;0.40;;;8.80;99.90;;;;;;5048400;28;20196;-77
2021/09/21 04:58:43;;;;;;;0.50;0.40;;;8.80;99.90;;;;;;5033253;28;20203;-77
2021/09/21 05:01:10;;;;;;;0.50;0.40;;;8.70;99.90;;;;;;5032837;28;20220;-77
2021/09/21 05:03:36;;;;;;;0.50;0.40;;;8.70;99.90;;;;;;5032530;28;20211;-78
2021/09/21 05:06:04;;;;;;;0.50;0.40;;;8.60;99.90;;;;;;5033060;28;20273;-77
2021/09/21 05:08:31;;;;;;;0.50;0.40;;;8.50;99.90;;;;;;5032625;28;20578;-78
2021/09/21 05:10:58;;;;;;;0.50;0.40;;;8.50;99.90;;;;;;5033702;28;20219;-77
2021/09/21 05:13:25;;;;;;;0.50;0.40;;;8.50;99.90;;;;;;5040422;28;20358;-77
2021/09/21 05:15:52;;;;;;;0.50;0.40;;;8.50;99.90;;;;;;5052401;28;20282;-77
2021/09/21 05:18:19;;;;;;;0.50;0.40;;;8.50;99.90;;;;;;5052720;28;20249;-78
2021/09/21 05:20:46;;;;;;;0.50;0.40;;;8.40;99.90;;;;;;5052367;28;20213;-77
2021/09/21 05:23:14;;;;;;;0.50;0.40;;;8.50;99.90;;;;;;5052360;28;20202;-77
2021/09/21 05:25:41;;;;;;;0.50;0.40;;;8.50;99.90;;;;;;5052135;28;20215;-77
2021/09/21 05:28:08;;;;;;;0.50;0.40;;;8.50;99.90;;;;;;5051456;28;20195;-77
2021/09/21 05:30:35;;;;;;;0.50;0.40;;;8.50;99.90;;;;;;5051572;28;20210;-77
2021/09/21 05:33:02;;;;;;;0.50;0.40;;;8.50;99.90;;;;;;5051585;28;20238;-77
2021/09/21 05:35:29;;;;;;;0.50;0.40;;;8.70;99.90;;;;;;5051425;28;20191;-77
2021/09/21 05:37:57;;;;;;;0.60;0.60;;;8.80;99.90;;;;;;5051198;28;20226;-77
2021/09/21 05:40:26;;;;;;;0.50;0.40;;;8.80;99.90;;;;;;5050754;28;20687;-76
2021/09/21 05:42:53;;;;;;;0.50;0.50;;;8.80;99.90;;;;;;5052694;28;20285;-77
2021/09/21 05:45:19;;;;;;;0.50;0.40;;;8.80;99.90;;;;;;5051124;28;20589;-77
2021/09/21 05:47:47;;;;;;;0.50;0.40;;;8.80;99.90;;;;;;5048504;28;20207;-78
2021/09/21 05:50:15;;;;;;;1.75;1.65;;;8.90;99.90;;;;;;5031438;28;20222;-77
2021/09/21 05:52:44;;;;;;;0.50;0.40;;;8.90;99.90;;;;;;5031729;28;20203;-76
2021/09/21 05:55:11;;;;;;;0.50;0.40;;;9.00;99.90;;;;;;5031525;28;20299;-77
2021/09/21 05:57:40;;;;;;;0.50;0.40;;;9.10;99.90;;;;;;5046256;28;20198;-76
2021/09/21 06:00:08;;;;;;;0.50;0.40;;;9.00;99.90;;;;;;5051957;28;20215;-77
2021/09/21 06:02:35;;;;;;;0.50;0.40;;;9.10;99.90;;;;;;5053489;28;20210;-77
2021/09/21 06:05:01;;;;;;;0.50;0.40;;;9.20;99.90;;;;;;5055840;28;20216;-78
2021/09/21 06:07:28;;;;;;;0.50;0.40;;;9.30;99.90;;;;;;5051187;28;20195;-78
2021/09/21 06:09:55;;;;;;;0.50;0.40;;;9.40;99.90;;;;;;5053894;28;20232;-78
2021/09/21 06:12:21;;;;;;;0.65;0.65;;;9.60;99.90;;;;;;5056235;28;20217;-78
2021/09/21 06:14:49;;;;;;;1.15;1.08;;;9.80;99.90;;;;;;5056535;28;20196;-78
2021/09/21 06:17:16;;;;;;;0.50;0.40;;;9.90;99.90;;;;;;5056519;28;20230;-77
2021/09/21 06:19:43;;;;;;;0.50;0.40;;;10.10;99.90;;;;;;5056540;28;20282;-78
2021/09/21 06:22:10;;;;;;;0.50;0.40;;;10.30;99.90;;;;;;5057377;28;20204;-78
2021/09/21 06:24:36;;;;;;;0.50;0.40;;;10.60;99.90;;;;;;5056204;28;20211;-78
2021/09/21 06:27:03;;;;;;;0.50;0.40;;;10.80;99.90;;;;;;5057011;28;20200;-78
2021/09/21 06:29:30;;;;;;;0.50;0.40;;;11.00;99.90;;;;;;5058086;28;20200;-78
2021/09/21 06:31:59;;;;;;;0.50;0.40;;;11.10;99.90;;;;;;5057981;28;20623;-78
2021/09/21 06:34:25;;;;;;;0.50;0.40;;;11.30;99.90;;;;;;5057547;28;20677;-79
2021/09/21 06:36:53;;;;;;;0.50;0.40;;;11.90;99.90;;;;;;5043844;28;20684;-78
2021/09/21 06:39:20;;;;;;;0.50;0.40;;;13.20;99.90;;;;;;5038687;28;20188;-79
2021/09/21 06:41:47;;;;;;;4.10;2.00;;;14.80;99.90;;;;;;5038366;28;20278;-79
2021/09/21 06:44:14;;;;;;;0.50;0.40;;;16.40;99.90;;;;;;5040143;28;20473;-80
2021/09/21 06:46:41;;;;;;;0.50;0.30;;;17.50;99.90;;;;;;5039621;28;20438;-80
2021/09/21 06:49:09;;;;;;;0.50;0.40;;;18.40;99.90;;;;;;5040574;28;20812;-79
2021/09/21 06:51:42;;;;;;;0.50;0.30;;;19.10;99.90;;;;;;5056397;28;20459;-77
2021/09/21 06:54:09;;;;;;;0.50;0.30;;;20.00;99.90;;;;;;5038575;28;20460;-78
2021/09/21 06:56:35;;;;;;;0.50;0.30;;;20.90;99.90;;;;;;5038913;28;20441;-79
2021/09/21 06:59:02;;;;;;;0.50;0.40;;;21.70;99.90;;;;;;5039995;28;20441;-79
2021/09/21 07:01:29;;;;;;;0.50;0.30;;;22.50;99.90;;;;;;5039747;28;20470;-80
2021/09/21 07:03:56;;;;;;;0.50;0.40;;;23.40;99.90;;;;;;5040526;28;20562;-80
2021/09/21 07:06:24;;;;;;;0.50;0.40;;;23.40;94.30;;;;;;5039634;28;20445;-79
2021/09/21 07:08:50;;;;;;;0.50;0.40;;;22.90;93.80;;;;;;5040430;28;20442;-79
2021/09/21 07:11:18;;;;;;;0.50;0.40;;;22.30;92.50;;;;;;5039353;28;20470;-80
2021/09/21 07:13:45;;;;;;;0.50;0.30;;;22.10;91.90;;;;;;5038650;28;20541;-79
2021/09/21 07:16:12;;;;;;;0.50;0.40;;;21.60;91.60;;;;;;5039005;28;20849;-80
2021/09/21 07:18:39;;;;;;;0.50;0.40;;;21.10;94.20;;;;;;5039225;28;20445;-78
2021/09/21 07:21:06;;;;;;;0.70;0.67;;;21.10;97.90;;;;;;5038955;28;20523;-79
2021/09/21 07:23:34;;;;;;;0.50;0.40;;;20.90;99.90;;;;;;5038801;28;20450;-80
2021/09/21 07:26:02;;;;;;;0.50;0.30;;;20.40;99.90;;;;;;5038621;28;20479;-79
2021/09/21 07:28:28;;;;;;;0.50;0.30;;;20.10;99.90;;;;;;5039153;28;20502;-80
2021/09/21 07:30:55;;;;;;;0.50;0.30;;;20.00;99.90;;;;;;5037880;28;20990;-80
2021/09/21 07:33:22;;;;;;;0.50;0.40;;;19.80;99.90;;;;;;5038418;28;20444;-80
2021/09/21 07:35:48;;;;;;;0.50;0.30;;;19.90;99.90;;;;;;5037750;28;20440;-79
2021/09/21 07:38:17;;;;;;;0.50;0.30;;;19.60;99.90;;;;;;5037168;28;20443;-78
2021/09/21 07:40:45;;;;;;;0.60;0.60;;;19.50;99.90;;;;;;5037648;28;20465;-78
2021/09/21 07:43:12;;;;;;;0.50;0.40;;;20.10;99.90;;;;;;5038134;28;20945;-80
2021/09/21 07:45:38;;;;;;;0.50;0.40;;;20.70;99.90;;;;;;5037860;28;21011;-78
2021/09/21 07:48:06;;;;;;;9.83;2.20;;;21.40;99.90;;;;;;5038155;28;20509;-79
2021/09/21 07:50:33;;;;;;;1.37;1.27;;;21.50;99.80;;;;;;5038132;28;20473;-79
2021/09/21 07:53:00;;;;;;;0.50;0.40;;;21.70;99.90;;;;;;5038237;28;20454;-79
2021/09/21 07:55:27;;;;;;;0.50;0.40;;;23.00;99.90;;;;;;5039316;28;20843;-80
2021/09/21 07:57:55;;;;;;;0.50;0.30;;;24.50;93.10;;;;;;5040425;28;20446;-80
2021/09/21 08:00:22;;;;;;;0.50;0.40;;;25.70;88.30;;;;;;5039031;28;20470;-80
2021/09/21 08:02:49;;;;;;;0.50;0.30;;;26.60;78.30;;;;;;5039185;28;20449;-79
2021/09/21 08:05:15;;;;;;;0.50;0.40;;;27.50;72.10;;;;;;5038983;28;20525;-80
2021/09/21 08:07:42;;;;;;;0.50;0.30;;;27.70;67.40;;;;;;5039473;28;20442;-78
2021/09/21 08:10:11;;;;;;;0.50;0.30;;;27.70;65.40;;;;;;5038150;28;20471;-79
2021/09/21 08:12:39;;;;;;;0.50;0.30;;;28.00;63.60;;;;;;5038977;28;20498;-80
2021/09/21 08:15:08;;;;;;;0.50;0.30;;;28.10;63.70;;;;;;5038619;28;20450;-80
2021/09/21 08:17:35;;;;;;;0.50;0.40;;;28.70;61.40;;;;;;5039531;28;20453;-77
2021/09/21 08:20:02;;;;;;;0.50;0.40;;;29.40;61.00;;;;;;5038728;28;20466;-80
2021/09/21 08:22:29;;;;;;;0.50;0.30;;;29.30;57.70;;;;;;5039427;28;20453;-78
2021/09/21 08:24:56;;;;;;;0.50;0.30;;;29.90;58.20;;;;;;5038506;28;20478;-79
2021/09/21 08:27:23;;;;;;;0.50;0.30;;;30.40;57.90;;;;;;5038736;28;20462;-79
2021/09/21 08:29:50;;;;;;;0.50;0.30;;;31.20;56.20;;;;;;5039162;28;20465;-80
2021/09/21 08:32:18;;;;;;;0.50;0.30;;;31.70;54.10;;;;;;5038644;28;20991;-79
2021/09/21 08:34:45;;;;;;;0.50;0.30;;;31.20;54.70;;;;;;5039444;28;20961;-79
2021/09/21 08:37:12;;;;;;;0.50;0.30;;;31.80;54.90;;;;;;5036194;28;20444;-79
2021/09/21 08:39:39;;;;;;;0.50;0.30;;;32.30;53.40;;;;;;5033340;28;20452;-78
2021/09/21 08:42:06;;;;;;;0.50;0.30;;;32.40;53.90;;;;;;5033290;28;20826;-78
2021/09/21 08:44:35;;;;;;;0.50;0.30;;;33.00;51.00;;;;;;5033225;28;20483;-78
2021/09/21 08:47:02;;;;;;;0.50;0.40;;;32.70;49.70;;;;;;5034047;28;20531;-78
2021/09/21 08:49:30;;;;;;;0.53;0.53;;;32.50;49.90;;;;;;5032860;28;20446;-79
2021/09/21 08:51:57;;;;;;;0.50;0.30;;;31.40;50.40;;;;;;5037721;28;20466;-79
2021/09/21 08:54:24;;;;;;;0.50;0.30;;;31.10;52.00;;;;;;5032524;28;20447;-78
2021/09/21 08:56:50;;;;;;;0.50;0.30;;;31.50;51.80;;;;;;5032615;28;20461;-79
2021/09/21 08:59:27;;;;;;;0.50;0.30;;;31.10;51.60;;;;;;5032601;28;20927;-78
2021/09/21 09:01:54;;;;;;;0.50;0.30;;;30.30;50.90;;;;;;5032380;28;20453;-77
2021/09/21 09:04:21;;;;;;;0.50;0.30;;;30.20;52.30;;;;;;5031942;28;20855;-78
2021/09/21 09:06:53;;;;;;;0.50;0.30;;;30.20;52.90;;;;;;5033030;28;20436;-79
2021/09/21 09:09:21;;;;;;;0.50;0.30;;;30.40;52.70;;;;;;5032547;28;20521;-77
2021/09/21 09:11:49;;;;;;;0.50;0.30;;;30.60;51.20;;;;;;5031966;28;20524;-78
2021/09/21 09:14:21;;;;;;;0.50;0.30;;;30.40;52.90;;;;;;5032882;28;20442;-78
2021/09/21 09:16:53;;;;;;;0.93;0.83;;;30.50;52.60;;;;;;5032187;28;20439;-79
2021/09/21 09:19:21;;;;;;;0.50;0.30;;;30.80;53.60;;;;;;5032642;28;20808;-79
2021/09/21 09:21:49;;;;;;;0.50;0.30;;;30.80;51.30;;;;;;5031895;28;20465;-79
2021/09/21 09:24:18;;;;;;;0.50;0.30;;;30.90;53.50;;;;;;5032226;28;20473;-79
2021/09/21 09:26:45;;;;;;;0.50;0.30;;;31.00;49.70;;;;;;5031930;28;20428;-79
2021/09/21 09:29:15;;;;;;;1.50;1.50;;;31.30;51.60;;;;;;5032916;28;20502;-76
2021/09/21 09:31:45;;;;;;;0.50;0.30;;;31.50;50.70;;;;;;5032004;28;20471;-80
2021/09/21 09:34:14;;;;;;;0.50;0.30;;;31.90;51.30;;;;;;5032441;28;20783;-78
2021/09/21 09:36:46;;;;;;;2.00;1.00;;;32.10;51.60;;;;;;5031743;28;20770;-79
2021/09/21 09:39:15;;;;;;;0.50;0.30;;;32.90;49.30;;;;;;5032096;28;20441;-77
2021/09/21 09:41:44;;;;;;;0.50;0.30;;;33.70;49.30;;;;;;5031686;28;20472;-78
2021/09/21 09:44:12;;;;;;;0.50;0.30;;;33.90;48.20;;;;;;5032177;28;20463;-79
2021/09/21 09:46:48;;;;;;;0.50;0.30;;;34.10;47.50;;;;;;5031070;28;20992;-78
2021/09/21 09:49:15;;;;;;;0.50;0.30;;;34.50;48.10;;;;;;5032283;28;20459;-78
2021/09/21 09:51:46;;;;;;;0.50;0.30;;;34.60;44.80;;;;;;5031379;28;20492;-79
2021/09/21 09:54:14;;;;;;;0.50;0.30;;;34.40;45.10;;;;;;5032278;28;20451;-79
2021/09/21 09:56:43;;;;;;;0.50;0.30;;;34.00;44.90;;;;;;5032916;28;20474;-79
2021/09/21 09:59:11;;;;;;;0.50;0.30;;;32.70;45.60;;;;;;5035240;28;20520;-78
2021/09/21 10:01:38;;;;;;;0.50;0.30;;;32.10;48.00;;;;;;5033460;28;20471;-79
2021/09/21 10:04:05;;;;;;;0.50;0.30;;;31.50;48.10;;;;;;5034392;28;20958;-79
2021/09/21 10:06:32;;;;;;;0.50;0.30;;;31.30;48.90;;;;;;5034396;28;20482;-79
2021/09/21 10:08:59;;;;;;;0.50;0.30;;;30.90;47.00;;;;;;5034235;28;20871;-78
2021/09/21 10:11:29;;;;;;;0.50;0.30;;;30.10;46.30;;;;;;5032609;28;20601;-79
2021/09/21 10:13:57;;;;;;;0.50;0.30;;;29.60;47.00;;;;;;5033934;28;20469;-79
2021/09/21 10:16:24;;;;;;;0.50;0.30;;;29.00;48.70;;;;;;5033529;28;20463;-79
2021/09/21 10:18:54;;;;;;;0.50;0.30;;;28.10;46.80;;;;;;5032990;28;20441;-78
2021/09/21 10:21:30;;;;;;;0.50;0.30;;;27.60;49.60;;;;;;5032743;28;20459;-78
2021/09/21 10:24:02;;;;;;;1.70;1.60;;;27.80;52.90;;;;;;5033454;28;20958;-78
2021/09/21 10:26:31;;;;;;;0.50;0.30;;;28.00;51.10;;;;;;5033040;28;20481;-79
2021/09/21 10:29:00;;;;;;;0.50;0.30;;;28.00;51.10;;;;;;5033035;28;20438;-78
2021/09/21 10:31:28;;;;;;;0.50;0.30;;;28.00;51.30;;;;;;5032842;28;20644;-77
2021/09/21 10:33:56;;;;;;;0.50;0.30;;;28.50;51.20;;;;;;5034337;28;20452;-79
2021/09/21 10:36:29;;;;;;;0.50;0.30;;;29.50;51.30;;;;;;5034426;28;20852;-79
2021/09/21 10:38:58;;;;;;;0.50;0.30;;;30.30;51.70;;;;;;5034488;28;20534;-78
2021/09/21 10:41:25;;;;;;;0.50;0.30;;;30.80;49.40;;;;;;5033421;28;20466;-78
2021/09/21 10:44:02;;;;;;;0.50;0.30;;;30.90;49.00;;;;;;5034486;28;20937;-79
2021/09/21 10:46:28;;;;;;;0.50;0.30;;;31.40;50.20;;;;;;5033492;28;20486;-79
2021/09/21 10:49:04;;;;;;;0.50;0.30;;;31.20;46.80;;;;;;5034522;28;20448;-78
2021/09/21 10:51:31;;;;;;;0.50;0.30;;;30.60;46.00;;;;;;5037589;28;20823;-78
2021/09/21 10:54:05;;;;;;;0.50;0.30;;;30.80;47.30;;;;;;5038109;28;20436;-78
2021/09/21 10:56:38;;;;;;;0.50;0.30;;;31.20;46.90;;;;;;5037824;28;20847;-79
2021/09/21 10:59:15;;;;;;;0.50;0.30;;;31.50;47.40;;;;;;5037063;28;20438;-78
2021/09/21 11:01:47;;;;;;;0.50;0.30;;;31.50;47.50;;;;;;5036932;28;20475;-79
2021/09/21 11:04:14;;;;;;;0.50;0.30;;;31.60;47.30;;;;;;5038349;28;20440;-80
2021/09/21 11:06:44;;;;;;;0.50;0.43;;;31.90;46.30;;;;;;5037867;28;20991;-79
2021/09/21 11:09:10;;;;;;;0.50;0.30;;;31.90;47.60;;;;;;5037682;28;20449;-78
2021/09/21 11:11:37;;;;;;;0.50;0.30;;;31.30;45.80;;;;;;5036854;28;20458;-79
2021/09/21 11:14:04;;;;;;;0.50;0.30;;;30.70;48.10;;;;;;5037523;28;20442;-80
2021/09/21 11:16:32;;;;;;;0.50;0.30;;;30.90;49.10;;;;;;5038237;28;20452;-78
2021/09/21 11:18:59;;;;;;;0.50;0.30;;;31.40;48.50;;;;;;5037585;28;20464;-79
2021/09/21 11:21:26;;;;;;;0.50;0.30;;;31.30;45.60;;;;;;5037148;28;20473;-79
2021/09/21 11:23:56;;;;;;;0.50;0.30;;;31.40;45.60;;;;;;5037811;28;20615;-80
2021/09/21 11:26:22;;;;;;;0.50;0.30;;;31.60;46.70;;;;;;5039500;28;20475;-80
2021/09/21 11:28:49;;;;;;;0.50;0.30;;;31.50;45.60;;;;;;5038987;28;20943;-79
2021/09/21 11:31:18;;;;;;;0.50;0.30;;;31.80;46.80;;;;;;5036641;28;20459;-79
2021/09/21 11:33:48;;;;;;;0.50;0.30;;;30.90;47.00;;;;;;5037278;28;20453;-78
2021/09/21 11:36:17;;;;;;;0.50;0.30;;;31.20;48.80;;;;;;5038375;28;20978;-78
2021/09/21 11:38:46;;;;;;;0.50;0.30;;;31.80;47.20;;;;;;5036404;28;20499;-79
2021/09/21 11:41:14;;;;;;;0.50;0.30;;;31.50;46.30;;;;;;5036332;28;20498;-79
2021/09/21 11:43:41;;;;;;;0.50;0.30;;;31.20;47.50;;;;;;5037369;28;20846;-79
2021/09/21 11:46:08;;;;;;;0.50;0.30;;;31.70;48.30;;;;;;5037293;28;20478;-79
2021/09/21 11:48:34;;;;;;;0.50;0.40;;;31.30;45.90;;;;;;5036964;28;20449;-79
2021/09/21 11:51:02;;;;;;;0.50;0.30;;;31.40;44.20;;;;;;5036772;28;20467;-79
2021/09/21 11:53:30;;;;;;;0.50;0.50;;;31.40;43.90;;;;;;5036890;28;20449;-78
2021/09/21 11:55:59;;;;;;;0.50;0.30;;;31.10;44.30;;;;;;5037074;28;20446;-79
2021/09/21 11:58:28;;;;;;;0.50;0.30;;;31.00;46.20;;;;;;5036779;28;20441;-78
2021/09/21 12:00:57;;;;;;;0.50;0.30;;;30.20;45.10;;;;;;5034163;28;20470;-79
2021/09/21 12:03:25;;;;;;;0.50;0.30;;;28.50;47.70;;;;;;5035825;28;20823;-76
2021/09/21 12:05:54;;;;;;;0.60;0.50;;;27.90;49.60;;;;;;5036190;28;20882;-79
2021/09/21 12:08:25;;;;;;;0.50;0.30;;;28.10;51.10;;;;;;5036208;28;20844;-78
2021/09/21 12:10:54;;;;;;;0.50;0.30;;;28.20;49.70;;;;;;5035729;28;20968;-78
2021/09/21 12:13:22;;;;;;;0.50;0.30;;;28.40;50.80;;;;;;5036142;28;20453;-79
2021/09/21 12:15:51;;;;;;;0.50;0.30;;;28.60;50.40;;;;;;5036296;28;20916;-78
2021/09/21 12:18:18;;;;;;;0.50;0.30;;;28.70;50.60;;;;;;5036919;28;20449;-79
2021/09/21 12:20:52;;;;;;;0.50;0.30;;;28.70;50.90;;;;;;5037552;28;20463;-78
2021/09/21 12:23:24;;;;;;;0.50;0.40;;;28.70;51.50;;;;;;5035957;28;20451;-79
2021/09/21 12:25:53;;;;;;;0.50;0.30;;;28.70;51.10;;;;;;5035691;28;20651;-78
2021/09/21 12:28:24;;;;;;;0.60;0.43;;;29.10;51.80;;;;;;5036106;28;20943;-79
2021/09/21 12:30:51;;;;;;;0.50;0.30;;;29.60;50.50;;;;;;5035659;28;20462;-79
2021/09/21 12:33:18;;;;;;;0.50;0.30;;;29.60;49.00;;;;;;5036044;28;20444;-79
2021/09/21 12:35:47;;;;;;;0.50;0.30;;;29.20;49.90;;;;;;5036832;28;20447;-78
2021/09/21 12:38:16;;;;;;;0.50;0.30;;;28.70;47.50;;;;;;5036152;28;20950;-79
2021/09/21 12:40:56;;;;;;;0.50;0.30;;;27.80;47.90;;;;;;5034985;28;20557;-79
2021/09/21 12:43:25;;;;;;;0.50;0.30;;;28.10;49.80;;;;;;5035348;28;20423;-77
2021/09/21 12:45:54;;;;;;;0.50;0.30;;;28.30;50.60;;;;;;5035333;28;20478;-78
2021/09/21 12:48:26;;;;;;;0.50;0.30;;;26.90;49.30;;;;;;5034929;28;20441;-79
2021/09/21 12:50:54;;;;;;;0.50;0.30;;;27.10;51.70;;;;;;5035506;28;21275;-79
2021/09/21 12:53:21;;;;;;;0.50;0.30;;;27.80;52.30;;;;;;5063527;22;20515;-84
2021/09/21 12:55:57;;;;;;;0.50;0.30;;;28.40;49.50;;;;;;5058161;28;20440;-84
2021/09/21 12:58:25;;;;;;;0.50;0.30;;;28.40;48.60;;;;;;5064605;28;20441;-82
2021/09/21 13:00:52;;;;;;;0.50;0.30;;;28.70;50.40;;;;;;5059402;28;20806;-84